Time;durP1;ratioP1;P1;durP2;ratioP2;P2;SDS_P1;SDS_P2;PMS_P1;PMS_P2;Temp;Humidity;BMP_temperature;BMP_pressure;BME280_temperature;BME280_humidity;BME280_pressure;Samples;Min_cycle;Max_cycle;Signal;HPM_P1;HPM_P2
2022/09/10 00:00:55;;;;;;;11.23;4.55;;;;;;;14.84;100.00;100933.84;7380013;19;20014;-73
2022/09/10 00:03:25;;;;;;;8.75;4.57;;;;;;;14.82;100.00;100938.25;7382312;19;20019;-73
2022/09/10 00:06:01;;;;;;;9.00;4.40;;;;;;;14.79;100.00;100932.97;7372157;19;20011;-73
2022/09/10 00:08:33;;;;;;;9.48;4.28;;;;;;;14.78;100.00;100941.78;7384604;19;20037;-73
2022/09/10 00:11:06;;;;;;;9.65;4.38;;;;;;;14.75;100.00;100942.66;7382207;19;20025;-73
2022/09/10 00:13:44;;;;;;;11.77;4.77;;;;;;;14.74;100.00;100938.25;7378519;19;20014;-73
2022/09/10 00:16:17;;;;;;;11.45;4.40;;;;;;;14.76;100.00;100938.25;7382482;19;20654;-72
2022/09/10 00:18:49;;;;;;;9.23;4.63;;;;;;;14.74;100.00;100940.91;7383634;19;20015;-73
2022/09/10 00:21:21;;;;;;;8.90;5.32;;;;;;;14.76;100.00;100932.97;7382783;19;20014;-73
2022/09/10 00:23:51;;;;;;;10.23;4.00;;;;;;;14.73;100.00;100933.84;7384121;19;20017;-73
2022/09/10 00:26:23;;;;;;;10.40;4.70;;;;;;;14.71;100.00;100922.41;7383986;19;20018;-73
2022/09/10 00:29:00;;;;;;;9.38;4.50;;;;;;;14.72;100.00;100922.41;7382446;19;20062;-73
2022/09/10 00:31:31;;;;;;;8.23;4.10;;;;;;;14.71;100.00;100928.59;7383023;19;20019;-73
2022/09/10 00:34:04;;;;;;;11.67;4.37;;;;;;;14.71;100.00;100927.69;7381964;19;20022;-73
2022/09/10 00:36:38;;;;;;;9.27;4.40;;;;;;;14.68;100.00;100927.72;7383517;19;20364;-73
2022/09/10 00:39:11;;;;;;;7.30;4.10;;;;;;;14.66;100.00;100922.44;7381650;19;20090;-73
2022/09/10 00:41:43;;;;;;;10.50;4.80;;;;;;;14.64;100.00;100931.25;7383733;19;20006;-73
2022/09/10 00:44:42;;;;;;;7.50;4.10;;;;;;;14.62;100.00;100931.25;7380628;19;20335;-73
2022/09/10 00:47:19;;;;;;;10.27;4.85;;;;;;;14.67;100.00;100929.47;7378304;19;20010;-73
2022/09/10 00:49:54;;;;;;;8.45;5.15;;;;;;;14.68;100.00;100925.94;7381656;19;20043;-73
2022/09/10 00:52:24;;;;;;;11.23;5.55;;;;;;;14.66;100.00;100930.34;7377338;19;21075;-73
2022/09/10 00:54:55;;;;;;;12.48;6.10;;;;;;;14.66;100.00;100917.16;7380360;19;20020;-73
2022/09/10 00:57:27;;;;;;;12.43;6.00;;;;;;;14.65;100.00;100917.16;7380324;19;20010;-73
2022/09/10 01:00:02;;;;;;;12.32;5.82;;;;;;;14.70;100.00;100908.34;7380236;19;20011;-73
2022/09/10 01:02:38;;;;;;;13.85;5.90;;;;;;;14.67;100.00;100923.31;7380373;19;20422;-72
2022/09/10 01:05:10;;;;;;;10.68;5.57;;;;;;;14.64;100.00;100912.75;7378345;19;20007;-73
2022/09/10 01:07:41;;;;;;;10.82;5.28;;;;;;;14.61;100.00;100918.94;7378461;19;20029;-73
2022/09/10 01:10:16;;;;;;;10.27;5.20;;;;;;;14.59;100.00;100915.41;7380024;19;20014;-72
2022/09/10 01:13:11;;;;;;;10.20;4.57;;;;;;;14.61;100.00;100923.31;7383520;19;20013;-72
2022/09/10 01:15:49;;;;;;;12.23;5.13;;;;;;;14.58;100.00;100918.06;7380204;19;20473;-72
2022/09/10 01:18:34;;;;;;;11.60;4.38;;;;;;;14.60;100.00;100917.16;7379131;19;20428;-72
2022/09/10 01:21:18;;;;;;;11.70;4.88;;;;;;;14.64;100.00;100924.19;7378322;19;20018;-73
2022/09/10 01:24:14;;;;;;;10.98;5.05;;;;;;;14.62;100.00;100915.41;7379836;19;20025;-72
2022/09/10 01:27:03;;;;;;;13.27;5.75;;;;;;;14.68;100.00;100919.78;7379255;19;20092;-74
2022/09/10 01:29:44;;;;;;;12.15;5.30;;;;;;;14.67;100.00;100905.72;7380579;19;20045;-73
2022/09/10 01:32:19;;;;;;;10.25;5.07;;;;;;;14.68;100.00;100904.81;7379984;19;20529;-73
2022/09/10 01:34:59;;;;;;;13.55;5.35;;;;;;;14.68;100.00;100911.88;7382917;19;20021;-73
2022/09/10 01:37:32;;;;;;;14.68;4.55;;;;;;;14.70;100.00;100902.19;7379454;19;20018;-72
2022/09/10 01:40:06;;;;;;;10.27;4.40;;;;;;;14.71;100.00;100903.94;7379147;19;20129;-72
2022/09/10 01:42:38;;;;;;;12.38;4.95;;;;;;;14.71;100.00;100904.81;7378860;19;20033;-72
2022/09/10 01:45:14;;;;;;;8.77;4.05;;;;;;;14.76;100.00;100906.56;7379582;19;20565;-73
2022/09/10 01:48:02;;;;;;;9.65;4.43;;;;;;;14.78;100.00;100910.97;7379817;19;20573;-73
2022/09/10 01:50:43;;;;;;;17.40;4.60;;;;;;;14.81;100.00;100910.06;7382008;19;20018;-72
2022/09/10 01:53:42;;;;;;;9.30;4.03;;;;;;;14.81;100.00;100904.78;7379700;19;20018;-73
2022/09/10 01:56:27;;;;;;;11.18;4.28;;;;;;;14.83;100.00;100908.31;7383256;19;20011;-73
2022/09/10 01:59:05;;;;;;;10.10;4.25;;;;;;;14.85;100.00;100902.16;7384632;19;20018;-72
2022/09/10 02:01:43;;;;;;;10.07;4.10;;;;;;;14.84;100.00;100897.75;7384175;19;20006;-72
2022/09/10 02:04:16;;;;;;;9.45;4.32;;;;;;;14.87;100.00;100908.28;7383509;19;20365;-73
2022/09/10 02:06:50;;;;;;;10.18;4.40;;;;;;;14.89;100.00;100903.88;7385261;19;20015;-72
2022/09/10 02:09:21;;;;;;;10.38;5.63;;;;;;;14.92;100.00;100905.66;7383159;19;20460;-72
2022/09/10 02:11:54;;;;;;;12.20;5.70;;;;;;;14.95;100.00;100908.28;7379600;19;20010;-72
2022/09/10 02:14:25;;;;;;;14.52;5.70;;;;;;;15.00;100.00;100910.00;7379142;19;20017;-72
2022/09/10 02:17:00;;;;;;;18.27;6.68;;;;;;;15.03;100.00;100901.19;7380326;19;20006;-72
2022/09/10 02:19:30;;;;;;;14.60;7.00;;;;;;;15.05;100.00;100904.72;7379911;19;20042;-72
2022/09/10 02:22:00;;;;;;;13.15;7.50;;;;;;;15.04;100.00;100902.97;7382388;19;20023;-72
2022/09/10 02:24:30;;;;;;;15.55;7.32;;;;;;;15.03;100.00;100906.47;7387385;19;20013;-72
2022/09/10 02:27:00;;;;;;;17.65;8.07;;;;;;;15.04;100.00;100902.97;7388557;19;20011;-72
2022/09/10 02:29:30;;;;;;;13.90;6.82;;;;;;;15.03;100.00;100902.09;7387908;19;20442;-72
2022/09/10 02:32:03;;;;;;;16.33;6.90;;;;;;;15.02;100.00;100900.31;7387004;19;20014;-72
2022/09/10 02:34:33;;;;;;;12.27;6.55;;;;;;;15.00;100.00;100893.28;7388401;19;20056;-72
2022/09/10 02:37:02;;;;;;;13.00;7.03;;;;;;;14.98;100.00;100889.78;7387366;19;20010;-72
2022/09/10 02:39:32;;;;;;;13.25;6.25;;;;;;;15.02;100.00;100897.69;7385913;19;20013;-72
2022/09/10 02:42:02;;;;;;;15.38;6.22;;;;;;;15.01;100.00;100887.13;7384859;19;20022;-72
2022/09/10 02:44:32;;;;;;;11.05;5.75;;;;;;;14.98;100.00;100895.94;7386989;19;20030;-71
2022/09/10 02:47:05;;;;;;;15.52;5.80;;;;;;;14.98;100.00;100895.06;7386024;19;20019;-73
2022/09/10 02:49:36;;;;;;;12.02;5.68;;;;;;;14.98;100.00;100895.06;7385266;19;20014;-73
2022/09/10 02:52:07;;;;;;;11.50;5.50;;;;;;;14.97;100.00;100899.47;7383236;19;20003;-73
2022/09/10 02:54:37;;;;;;;16.80;6.63;;;;;;;14.99;100.00;100897.69;7383479;19;20115;-73
2022/09/10 02:57:07;;;;;;;20.88;8.27;;;;;;;15.00;100.00;100906.50;7383432;19;20758;-72
2022/09/10 02:59:37;;;;;;;13.75;8.00;;;;;;;15.00;100.00;100895.94;7385930;19;20015;-72
2022/09/10 03:02:09;;;;;;;16.00;8.48;;;;;;;14.99;100.00;100894.19;7379536;19;20291;-72
2022/09/10 03:04:39;;;;;;;18.25;9.00;;;;;;;14.99;100.00;100896.81;7384559;19;20010;-71
2022/09/10 03:07:09;;;;;;;22.23;10.13;;;;;;;14.97;100.00;100895.94;7383298;19;20086;-72
2022/09/10 03:09:39;;;;;;;17.88;9.13;;;;;;;14.94;100.00;100895.94;7385439;19;20045;-72
2022/09/10 03:12:09;;;;;;;23.10;9.00;;;;;;;14.93;100.00;100886.28;7385575;19;20014;-72
2022/09/10 03:14:39;;;;;;;21.58;9.77;;;;;;;14.92;100.00;100885.41;7383997;19;20070;-71
2022/09/10 03:17:11;;;;;;;17.98;9.00;;;;;;;14.90;100.00;100887.16;7382096;19;20102;-72
2022/09/10 03:19:42;;;;;;;20.15;9.48;;;;;;;14.88;100.00;100880.13;7381622;19;20006;-71
2022/09/10 03:22:12;;;;;;;18.10;8.90;;;;;;;14.85;100.00;100878.38;7383060;19;20018;-72
2022/09/10 03:24:42;;;;;;;21.55;9.43;;;;;;;14.83;100.00;100877.50;7382749;19;20010;-71
2022/09/10 03:27:12;;;;;;;16.10;8.85;;;;;;;14.83;100.00;100884.56;7384814;19;20037;-72
2022/09/10 03:29:43;;;;;;;16.15;8.63;;;;;;;14.80;100.00;100887.19;7381134;19;20105;-71
2022/09/10 03:32:15;;;;;;;18.58;8.80;;;;;;;14.78;100.00;100879.28;7384388;19;20014;-72
2022/09/10 03:34:45;;;;;;;19.02;8.77;;;;;;;14.81;100.00;100887.19;7383432;19;20024;-71
2022/09/10 03:37:15;;;;;;;16.55;8.43;;;;;;;14.84;100.00;100881.03;7385484;19;20135;-72
2022/09/10 03:39:45;;;;;;;17.30;8.63;;;;;;;14.84;100.00;100873.97;7383365;19;20506;-72
2022/09/10 03:42:15;;;;;;;16.60;8.45;;;;;;;14.86;100.00;100889.81;7383591;19;20078;-72
2022/09/10 03:44:45;;;;;;;13.70;7.63;;;;;;;14.83;100.00;100888.06;7383526;19;20052;-72
2022/09/10 03:47:17;;;;;;;15.93;7.78;;;;;;;14.85;100.00;100890.69;7381276;19;20358;-71
2022/09/10 03:49:49;;;;;;;14.80;7.28;;;;;;;14.84;100.00;100892.47;7383827;19;20037;-71
2022/09/10 03:52:21;;;;;;;11.80;6.00;;;;;;;14.86;100.00;100890.69;7380164;19;20026;-71
2022/09/10 03:54:51;;;;;;;13.82;6.53;;;;;;;14.86;100.00;100873.97;7382887;19;20007;-72
2022/09/10 03:57:22;;;;;;;13.90;7.30;;;;;;;14.85;100.00;100875.75;7383805;19;20011;-72
2022/09/10 03:59:51;;;;;;;17.88;7.85;;;;;;;14.87;100.00;100878.38;7383973;19;20006;-72
2022/09/10 04:02:24;;;;;;;11.70;7.05;;;;;;;14.90;100.00;100883.66;7382883;19;20011;-72
2022/09/10 04:04:55;;;;;;;13.83;7.17;;;;;;;14.95;100.00;100887.16;7383159;19;20042;-71
2022/09/10 04:07:24;;;;;;;15.80;6.15;;;;;;;14.96;100.00;100879.22;7384284;19;20015;-71
2022/09/10 04:09:55;;;;;;;14.77;6.35;;;;;;;14.99;100.00;100883.59;7382487;19;20499;-71
2022/09/10 04:12:25;;;;;;;13.00;6.50;;;;;;;14.99;100.00;100883.59;7382967;19;20010;-71
2022/09/10 04:14:56;;;;;;;12.45;5.63;;;;;;;15.01;100.00;100889.75;7380919;19;20018;-71
2022/09/10 04:17:29;;;;;;;16.48;6.22;;;;;;;15.04;100.00;100892.41;7383498;19;20029;-71
2022/09/10 04:19:59;;;;;;;13.03;6.17;;;;;;;15.05;100.00;100888.88;7383110;19;20019;-72
2022/09/10 04:22:29;;;;;;;19.20;7.60;;;;;;;15.05;100.00;100894.16;7380750;19;20284;-71
2022/09/10 04:24:59;;;;;;;15.40;5.97;;;;;;;15.04;100.00;100897.69;7381141;19;20396;-71
2022/09/10 04:27:31;;;;;;;13.65;5.90;;;;;;;15.02;100.00;100896.81;7383034;19;20118;-72
2022/09/10 04:30:01;;;;;;;15.27;6.60;;;;;;;15.02;100.00;100902.09;7381809;19;20478;-73
2022/09/10 04:32:34;;;;;;;13.68;5.60;;;;;;;15.01;100.00;100901.22;7384438;19;20014;-72
2022/09/10 04:35:05;;;;;;;14.73;6.32;;;;;;;15.00;100.00;100896.81;7383178;19;20016;-71
2022/09/10 04:37:35;;;;;;;13.93;5.85;;;;;;;15.02;100.00;100892.41;7383239;19;20010;-71
2022/09/10 04:40:06;;;;;;;17.23;7.30;;;;;;;15.02;100.00;100904.72;7383708;19;20045;-71
2022/09/10 04:42:38;;;;;;;13.77;5.50;;;;;;;15.02;100.00;100899.44;7378486;19;20007;-71
2022/09/10 04:45:09;;;;;;;16.00;5.28;;;;;;;15.04;100.00;100895.03;7383316;19;20086;-71
2022/09/10 04:47:42;;;;;;;16.73;7.28;;;;;;;15.03;100.00;100906.47;7379683;19;20010;-71
2022/09/10 04:50:14;;;;;;;13.85;6.07;;;;;;;15.02;100.00;100910.88;7382913;19;20010;-71
2022/09/10 04:52:44;;;;;;;16.00;5.70;;;;;;;15.00;100.00;100906.50;7378270;19;20018;-71
2022/09/10 04:55:14;;;;;;;12.82;5.50;;;;;;;15.01;100.00;100918.81;7380583;19;20007;-71
2022/09/10 04:57:44;;;;;;;13.68;5.53;;;;;;;15.01;100.00;100916.19;7380165;19;20406;-71
2022/09/10 05:00:15;;;;;;;16.73;6.78;;;;;;;14.97;100.00;100914.44;7380526;19;20172;-71
2022/09/10 05:02:48;;;;;;;16.95;6.47;;;;;;;14.95;100.00;100911.78;7379625;19;20031;-71
2022/09/10 05:05:20;;;;;;;18.35;5.97;;;;;;;14.94;100.00;100911.81;7380551;19;20160;-71
2022/09/10 05:07:51;;;;;;;13.65;5.32;;;;;;;14.90;100.00;100915.34;7387604;19;20027;-71
2022/09/10 05:10:23;;;;;;;14.07;5.53;;;;;;;14.88;100.00;100915.34;7385409;19;20014;-71
2022/09/10 05:12:53;;;;;;;14.35;5.88;;;;;;;14.86;100.00;100916.22;7388063;19;20031;-71
2022/09/10 05:15:23;;;;;;;12.43;5.60;;;;;;;14.83;100.00;100917.13;7387257;19;20006;-71
2022/09/10 05:17:55;;;;;;;15.77;6.00;;;;;;;14.81;100.00;100923.28;7388425;19;20034;-71
2022/09/10 05:20:26;;;;;;;11.00;5.50;;;;;;;14.76;100.00;100928.56;7384985;19;20019;-71
2022/09/10 05:22:56;;;;;;;13.63;6.10;;;;;;;14.71;100.00;100917.13;7382596;19;20034;-72
2022/09/10 05:25:28;;;;;;;13.60;5.78;;;;;;;14.68;100.00;100925.94;7384609;19;20018;-71
2022/09/10 05:27:59;;;;;;;11.38;5.15;;;;;;;14.65;100.00;100925.97;7385104;19;20010;-71
2022/09/10 05:30:31;;;;;;;15.02;6.53;;;;;;;14.65;100.00;100931.22;7385020;19;20014;-71
2022/09/10 05:33:04;;;;;;;18.17;6.25;;;;;;;14.64;100.00;100933.88;7381819;19;20007;-71
2022/09/10 05:35:34;;;;;;;17.53;6.93;;;;;;;14.60;100.00;100938.28;7382964;19;20011;-71
2022/09/10 05:38:04;;;;;;;17.52;7.75;;;;;;;14.60;100.00;100929.47;7380938;19;20284;-71
2022/09/10 05:40:34;;;;;;;20.65;7.95;;;;;;;14.60;100.00;100943.56;7379815;19;20731;-71
2022/09/10 05:43:04;;;;;;;11.98;6.43;;;;;;;14.62;100.00;100941.81;7379948;19;20014;-71
2022/09/10 05:45:34;;;;;;;15.00;6.63;;;;;;;14.67;100.00;100940.03;7378551;19;20014;-71
2022/09/10 05:48:06;;;;;;;16.25;5.97;;;;;;;14.80;100.00;100947.94;7381010;19;20357;-71
2022/09/10 05:50:37;;;;;;;10.90;6.05;;;;;;;14.89;100.00;100939.97;7379329;19;20010;-71
2022/09/10 05:53:08;;;;;;;14.48;6.57;;;;;;;15.00;100.00;100948.75;7376762;19;20094;-71
2022/09/10 05:55:42;;;;;;;19.23;7.68;;;;;;;15.06;100.00;100946.09;7386677;19;20011;-70
2022/09/10 05:58:15;;;;;;;17.67;6.95;;;;;;;15.09;100.00;100954.00;7386411;19;20011;-71
2022/09/10 06:00:45;;;;;;;15.63;7.72;;;;;;;15.17;100.00;100956.63;7388942;19;20014;-71
2022/09/10 06:03:18;;;;;;;15.75;7.05;;;;;;;15.28;100.00;100960.09;7386838;19;20019;-71
2022/09/10 06:05:51;;;;;;;18.23;9.27;;;;;;;15.31;100.00;100958.31;7386601;19;20018;-71
2022/09/10 06:08:22;;;;;;;17.98;7.30;;;;;;;15.41;100.00;100960.94;7385426;19;20018;-71
2022/09/10 06:11:00;;;;;;;15.70;6.88;;;;;;;15.49;100.00;100960.00;7385943;19;20033;-71
2022/09/10 06:13:30;;;;;;;16.20;7.18;;;;;;;15.64;100.00;100953.75;7384779;19;20010;-71
2022/09/10 06:16:03;;;;;;;16.77;7.15;;;;;;;15.89;100.00;100954.50;7386505;19;20015;-71
2022/09/10 06:18:37;;;;;;;;;;;;;;;16.05;100.00;100952.63;7385543;19;20089;-71
2022/09/10 06:21:09;;;;;;;22.85;9.05;;;;;;;16.08;100.00;100968.47;7387963;19;20366;-71
2022/09/10 06:23:39;;;;;;;19.00;9.20;;;;;;;16.05;100.00;100966.72;7385113;19;20380;-71
2022/09/10 06:26:11;;;;;;;14.20;7.72;;;;;;;16.05;100.00;100974.66;7385162;19;20011;-71
2022/09/10 06:28:42;;;;;;;15.00;7.40;;;;;;;16.07;100.00;100969.38;7385932;19;20518;-71
2022/09/10 06:31:15;;;;;;;15.23;6.75;;;;;;;16.06;100.00;100970.25;7385584;19;20014;-71
2022/09/10 06:33:52;;;;;;;12.45;6.38;;;;;;;16.07;100.00;100969.38;7387745;19;20014;-74
2022/09/10 06:36:23;;;;;;;13.45;6.32;;;;;;;16.22;100.00;100980.72;7384526;19;20031;-73
2022/09/10 06:38:54;;;;;;;13.90;6.63;;;;;;;16.38;100.00;100986.75;7387339;19;20498;-73
2022/09/10 06:41:26;;;;;;;12.20;4.90;;;;;;;16.52;100.00;100990.19;7386515;19;20347;-73
2022/09/10 06:43:56;;;;;;;11.02;4.90;;;;;;;16.49;100.00;101000.78;7383611;19;20025;-74
2022/09/10 06:46:26;;;;;;;13.18;5.47;;;;;;;16.55;100.00;101000.75;7386905;19;20006;-72
2022/09/10 06:49:22;;;;;;;11.10;4.90;;;;;;;16.80;100.00;100997.88;7385311;19;20011;-71
2022/09/10 06:51:52;;;;;;;17.70;5.90;;;;;;;16.87;100.00;100999.56;7387483;19;20098;-70
2022/09/10 06:54:22;;;;;;;14.25;5.72;;;;;;;16.92;100.00;100995.09;7381341;19;20010;-70
2022/09/10 06:56:52;;;;;;;12.15;5.53;;;;;;;16.97;100.00;101006.53;7385647;19;20006;-71
2022/09/10 06:59:22;;;;;;;11.45;5.18;;;;;;;16.93;100.00;101007.44;7385372;19;20010;-71
2022/09/10 07:01:52;;;;;;;11.27;4.55;;;;;;;16.99;100.00;101012.69;7386455;19;20002;-70
2022/09/10 07:04:25;;;;;;;10.85;4.30;;;;;;;17.25;100.00;101015.94;7384086;19;20446;-70
2022/09/10 07:06:58;;;;;;;8.53;4.17;;;;;;;17.35;100.00;101015.84;7383681;19;20388;-71
2022/09/10 07:09:28;;;;;;;11.40;4.70;;;;;;;17.26;100.00;101019.47;7385094;19;20396;-71
2022/09/10 07:11:58;;;;;;;11.30;4.53;;;;;;;17.18;100.00;101008.94;7384356;19;20042;-72
2022/09/10 07:14:27;;;;;;;10.02;4.45;;;;;;;17.14;100.00;101014.31;7384641;19;20018;-72
2022/09/10 07:16:57;;;;;;;7.57;3.50;;;;;;;17.10;100.00;101021.41;7382327;19;20074;-71
2022/09/10 07:19:31;;;;;;;10.50;3.08;;;;;;;16.99;100.00;101028.59;7383165;19;20025;-70
2022/09/10 07:22:02;;;;;;;10.40;2.97;;;;;;;16.98;100.00;101040.06;7383933;19;20039;-74
2022/09/10 07:24:34;;;;;;;8.75;3.10;;;;;;;17.01;100.00;101042.69;7384573;19;20013;-73
2022/09/10 07:27:04;;;;;;;7.57;3.60;;;;;;;17.32;100.00;101028.22;7384740;19;20387;-74
2022/09/10 07:29:34;;;;;;;8.35;2.63;;;;;;;17.47;100.00;101037.78;7384504;19;20007;-73
2022/09/10 07:32:05;;;;;;;6.03;2.40;;;;;;;17.84;100.00;101038.19;7382731;19;20011;-72
2022/09/10 07:34:39;;;;;;;7.30;2.47;;;;;;;17.96;100.00;101048.63;7385816;19;20018;-72
2022/09/10 07:37:09;;;;;;;7.05;2.30;;;;;;;18.26;100.00;101043.78;7385010;19;20014;-73
2022/09/10 07:39:39;;;;;;;5.47;2.30;;;;;;;18.49;100.00;101044.31;7384077;19;20003;-71
2022/09/10 07:42:10;;;;;;;5.72;2.22;;;;;;;18.46;100.00;101046.16;7383832;19;20419;-72
2022/09/10 07:44:40;;;;;;;4.72;1.90;;;;;;;18.54;100.00;101050.44;7383394;19;20015;-71
2022/09/10 07:47:10;;;;;;;4.75;2.10;;;;;;;18.44;100.00;101054.13;7383197;19;20010;-71
2022/09/10 07:49:43;;;;;;;6.68;2.05;;;;;;;18.45;100.00;101057.66;7383923;19;20015;-70
2022/09/10 07:52:13;;;;;;;6.47;2.10;;;;;;;18.95;100.00;101059.50;7379080;19;20010;-70
2022/09/10 07:54:43;;;;;;;6.00;2.75;;;;;;;18.99;100.00;101061.19;7383615;19;20505;-72
2022/09/10 07:57:13;;;;;;;8.80;3.95;;;;;;;18.19;100.00;101072.22;7382353;19;20010;-71
2022/09/10 07:59:43;;;;;;;14.40;7.35;;;;;;;17.64;100.00;101080.88;7384687;19;20011;-69
2022/09/10 08:02:15;;;;;;;19.55;9.50;;;;;;;17.47;100.00;101085.50;7381925;19;20025;-72
2022/09/10 08:04:48;;;;;;;18.17;9.00;;;;;;;17.37;100.00;101093.56;7382566;19;20351;-69
2022/09/10 08:07:18;;;;;;;16.73;8.63;;;;;;;17.40;100.00;101094.41;7383352;19;20011;-70
2022/09/10 08:09:47;;;;;;;20.65;10.00;;;;;;;17.22;100.00;101091.97;7382017;19;20006;-69
2022/09/10 08:12:17;;;;;;;22.42;10.27;;;;;;;17.72;100.00;101099.38;7384820;19;20025;-69
2022/09/10 08:14:47;;;;;;;21.38;12.20;;;;;;;17.81;100.00;101107.22;7381734;19;20051;-69
2022/09/10 08:17:17;;;;;;;23.02;10.77;;;;;;;17.69;100.00;101103.81;7383915;19;20045;-71
2022/09/10 08:19:49;;;;;;;19.70;10.93;;;;;;;17.80;100.00;101115.19;7380837;19;20541;-71
2022/09/10 08:22:19;;;;;;;21.10;11.48;;;;;;;17.79;100.00;101138.19;7381842;19;20155;-71
2022/09/10 08:24:50;;;;;;;21.98;11.45;;;;;;;17.76;100.00;101122.31;7382204;19;20038;-71
2022/09/10 08:27:20;;;;;;;21.83;11.63;;;;;;;18.03;100.00;101138.78;7382746;19;20414;-71
2022/09/10 08:29:50;;;;;;;21.02;11.93;;;;;;;18.12;100.00;101150.16;7383052;19;20593;-71
2022/09/10 08:32:20;;;;;;;20.38;11.77;;;;;;;18.30;100.00;101151.72;7383592;19;20025;-71
2022/09/10 08:34:54;;;;;;;24.05;11.43;;;;;;;17.80;100.00;101155.88;7382521;19;20011;-70
2022/09/10 08:37:24;;;;;;;21.98;11.45;;;;;;;17.84;100.00;101165.53;7383383;19;20031;-70
2022/09/10 08:39:55;;;;;;;24.38;12.82;;;;;;;18.23;100.00;101163.31;7384824;19;20043;-71
2022/09/10 08:42:30;;;;;;;20.13;10.52;;;;;;;18.52;100.00;101168.22;7385317;19;20466;-70
2022/09/10 08:45:08;;;;;;;19.33;10.25;;;;;;;18.50;100.00;101167.38;7386957;19;20015;-70
2022/09/10 08:47:48;;;;;;;20.52;10.18;;;;;;;18.15;100.00;101175.81;7389686;19;20015;-70
2022/09/10 08:50:33;;;;;;;19.60;10.10;;;;;;;18.16;100.00;101173.13;7390258;19;20015;-70
2022/09/10 08:53:17;;;;;;;18.27;9.52;;;;;;;18.16;100.00;101182.88;7386968;19;20116;-70
2022/09/10 08:55:48;;;;;;;16.20;10.05;;;;;;;17.97;100.00;101185.75;7386502;19;20104;-70
2022/09/10 08:58:24;;;;;;;16.42;9.25;;;;;;;17.80;100.00;101185.03;7386940;19;20014;-70
2022/09/10 09:00:59;;;;;;;16.13;9.10;;;;;;;17.95;100.00;101190.19;7383988;19;20051;-71
2022/09/10 09:03:35;;;;;;;16.48;9.48;;;;;;;17.97;100.00;101188.38;7383284;19;20025;-70
2022/09/10 09:06:14;;;;;;;16.48;9.80;;;;;;;17.85;100.00;101190.31;7382473;19;20011;-70
2022/09/10 09:08:48;;;;;;;15.23;8.63;;;;;;;18.17;100.00;101181.97;7383307;19;20085;-70
2022/09/10 09:11:23;;;;;;;18.13;9.52;;;;;;;18.51;100.00;101190.38;7384242;19;20453;-70
2022/09/10 09:14:10;;;;;;;19.00;9.45;;;;;;;18.56;100.00;101194.72;7382381;19;20006;-70
2022/09/10 09:16:55;;;;;;;19.65;8.73;;;;;;;18.45;100.00;101194.00;7381112;19;20011;-70
2022/09/10 09:19:35;;;;;;;17.02;9.07;;;;;;;18.47;100.00;101199.28;7381804;19;20017;-70
2022/09/10 09:22:14;;;;;;;17.08;9.27;;;;;;;18.53;100.00;101204.50;7379789;19;20314;-70
2022/09/10 09:24:56;;;;;;;18.15;9.45;;;;;;;18.26;100.00;101221.69;7378432;19;20513;-69
2022/09/10 09:27:33;;;;;;;16.65;10.25;;;;;;;18.26;100.00;101221.69;7381055;19;20006;-68
2022/09/10 09:30:06;;;;;;;14.88;8.10;;;;;;;18.27;100.00;101223.44;7378448;19;20013;-68
2022/09/10 09:32:38;;;;;;;15.83;8.33;;;;;;;18.52;100.00;101224.88;7380802;19;20020;-68
2022/09/10 09:35:22;;;;;;;15.50;7.35;;;;;;;18.34;100.00;101230.44;7379452;19;20280;-68
2022/09/10 09:38:11;;;;;;;13.32;6.50;;;;;;;18.84;100.00;101227.09;7378840;19;20462;-68
2022/09/10 09:40:48;;;;;;;11.70;6.55;;;;;;;19.02;100.00;101225.94;7380065;19;20026;-68
2022/09/10 09:43:30;;;;;;;13.45;6.05;;;;;;;19.40;100.00;101228.00;7380067;19;20015;-68
2022/09/10 09:46:01;;;;;;;12.95;6.35;;;;;;;19.40;100.00;101229.78;7378212;19;20011;-68
2022/09/10 09:48:39;;;;;;;10.25;5.80;;;;;;;19.40;100.00;101229.78;7377871;19;20020;-68
2022/09/10 09:51:12;;;;;;;8.77;5.10;;;;;;;19.29;100.00;101243.25;7379295;19;20535;-68
2022/09/10 09:53:46;;;;;;;7.85;4.38;;;;;;;19.37;100.00;101243.13;7375530;19;20034;-68
2022/09/10 09:56:25;;;;;;;8.30;4.88;;;;;;;19.43;100.00;101245.69;7380438;19;20007;-68
2022/09/10 09:58:57;;;;;;;9.82;4.55;;;;;;;19.50;100.00;101244.66;7377378;19;20562;-68
2022/09/10 10:01:28;;;;;;;7.60;5.15;;;;;;;19.54;100.00;101249.06;7380537;19;20002;-68
2022/09/10 10:04:04;;;;;;;8.30;4.75;;;;;;;19.70;100.00;101252.34;7377385;19;20090;-68
2022/09/10 10:06:35;;;;;;;9.93;5.05;;;;;;;19.66;100.00;101251.53;7377259;19;20010;-68
2022/09/10 10:09:20;;;;;;;7.90;4.72;;;;;;;20.32;100.00;101239.59;7381082;19;20023;-69
2022/09/10 10:11:54;;;;;;;8.85;5.18;;;;;;;20.13;100.00;101242.63;7378390;19;20010;-68
2022/09/10 10:14:38;;;;;;;9.30;5.15;;;;;;;20.84;100.00;101247.34;7380859;19;20025;-68
2022/09/10 10:17:23;;;;;;;6.50;4.45;;;;;;;20.75;100.00;101251.13;7379040;19;20014;-69
2022/09/10 10:20:01;;;;;;;9.40;4.78;;;;;;;20.10;100.00;101248.00;7377216;19;20006;-69
2022/09/10 10:22:34;;;;;;;8.80;5.10;;;;;;;19.95;100.00;101258.94;7377808;19;20099;-68
2022/09/10 10:25:07;;;;;;;;;;;;;;;20.39;100.00;101258.13;7378532;19;20022;-68
2022/09/10 10:27:40;;;;;;;10.90;5.93;;;;;;;20.40;100.00;101265.19;7378410;19;19922;-70
2022/09/10 10:30:24;;;;;;;9.27;5.60;;;;;;;20.52;100.00;101266.72;7378381;19;20006;-69
2022/09/10 10:32:57;;;;;;;9.85;6.00;;;;;;;20.78;100.00;101268.84;7379450;19;20014;-71
2022/09/10 10:35:43;;;;;;;10.43;5.97;;;;;;;20.86;100.00;101272.19;7379389;19;20012;-70
2022/09/10 10:38:30;;;;;;;14.60;7.18;;;;;;;21.52;100.00;101269.75;7377708;19;20027;-70
2022/09/10 10:41:45;;;;;;;9.90;6.72;;;;;;;20.14;100.00;101281.66;7377836;19;20017;-70
2022/09/10 10:44:24;;;;;;;;;;;;;;;19.85;100.00;101295.50;7383255;19;20013;-71
2022/09/10 10:47:06;;;;;;;13.32;7.35;;;;;;;19.44;100.00;101292.66;7383037;19;19915;-69
2022/09/10 10:49:52;;;;;;;11.85;7.30;;;;;;;19.38;100.00;101298.06;7384796;19;20040;-69
2022/09/10 10:52:33;;;;;;;11.00;6.70;;;;;;;19.33;100.00;101300.81;7381423;19;20042;-69
2022/09/10 10:55:14;;;;;;;17.13;8.18;;;;;;;19.25;100.00;101302.69;7385102;19;20014;-69
2022/09/10 10:58:02;;;;;;;13.65;7.10;;;;;;;19.38;100.00;101308.72;7385192;19;20074;-69
2022/09/10 11:00:40;;;;;;;13.95;7.13;;;;;;;20.08;100.00;101302.19;7383392;19;20370;-69
2022/09/10 11:03:17;;;;;;;9.27;5.70;;;;;;;20.40;100.00;101310.47;7385682;19;20088;-68
2022/09/10 11:05:50;;;;;;;13.15;7.28;;;;;;;20.05;100.00;101307.56;7384471;19;20078;-69
2022/09/10 11:08:28;;;;;;;;;;;;;;;20.22;100.00;101317.00;7384497;19;20007;-68
2022/09/10 11:11:05;;;;;;;11.20;6.63;;;;;;;20.01;100.00;101317.41;7386085;19;19922;-69
2022/09/10 11:13:44;;;;;;;10.85;7.18;;;;;;;20.03;100.00;101320.03;7381980;19;20010;-69
2022/09/10 11:16:19;;;;;;;12.30;7.68;;;;;;;20.29;100.00;101307.13;7382976;19;20011;-69
2022/09/10 11:18:53;;;;;;;11.50;6.28;;;;;;;20.46;100.00;101315.69;7383472;19;20110;-70
2022/09/10 11:21:31;;;;;;;9.45;6.18;;;;;;;20.10;100.00;101313.69;7385892;19;20014;-70
2022/09/10 11:24:05;;;;;;;9.32;5.80;;;;;;;19.78;100.00;101316.94;7385008;19;20018;-70
2022/09/10 11:26:42;;;;;;;8.88;5.85;;;;;;;20.02;100.00;101323.59;7381205;19;19999;-70
2022/09/10 11:29:31;;;;;;;10.23;5.95;;;;;;;19.82;100.00;101318.63;7385111;19;20010;-71
2022/09/10 11:32:07;;;;;;;11.93;6.45;;;;;;;20.53;100.00;101327.09;7384126;19;20039;-71
2022/09/10 11:34:47;;;;;;;13.52;7.15;;;;;;;20.31;100.00;101326.63;7384674;19;20029;-71
2022/09/10 11:37:27;;;;;;;10.93;5.40;;;;;;;20.13;100.00;101332.28;7385005;19;20063;-70
2022/09/10 11:40:04;;;;;;;12.23;5.63;;;;;;;20.60;100.00;101322.53;7387011;19;21182;-71
2022/09/10 11:42:40;;;;;;;8.52;5.45;;;;;;;20.65;100.00;101328.66;7381642;19;20032;-71